Time;durP1;ratioP1;P1;durP2;ratioP2;P2;SDS_P1;SDS_P2;PMS_P1;PMS_P2;Temp;Humidity;BMP_temperature;BMP_pressure;BME280_temperature;BME280_humidity;BME280_pressure;Samples;Min_cycle;Max_cycle;Signal;HPM_P1;HPM_P2
2021/12/30 00:01:38;;;;;;;0.70;0.70;;;;;;;;;;5073478;28;20432;-75
2021/12/30 00:04:05;;;;;;;3.77;0.70;;;;;;;;;;5073259;28;20924;-77
2021/12/30 00:06:38;;;;;;;0.70;0.70;;;;;;;;;;5072233;28;20875;-76
2021/12/30 00:09:06;;;;;;;0.70;0.60;;;;;;;;;;5072013;28;20535;-76
2021/12/30 00:11:34;;;;;;;0.63;0.63;;;;;;;;;;5072666;28;20456;-76
2021/12/30 00:14:01;;;;;;;0.90;0.80;;;;;;;;;;5072347;28;20451;-76
2021/12/30 00:16:28;;;;;;;1.33;0.70;;;;;;;;;;5072232;28;20468;-75
2021/12/30 00:18:56;;;;;;;0.60;0.60;;;;;;;;;;5072082;28;20444;-76
2021/12/30 00:21:23;;;;;;;0.93;0.80;;;;;;;;;;5083382;28;20466;-75
2021/12/30 00:23:50;;;;;;;1.47;0.70;;;;;;;;;;5095970;28;20451;-75
2021/12/30 00:26:17;;;;;;;1.07;0.80;;;;;;;;;;5097250;28;20491;-77
2021/12/30 00:28:46;;;;;;;0.80;0.80;;;;;;;;;;5097596;28;20468;-75
2021/12/30 00:31:13;;;;;;;0.70;0.70;;;;;;;;;;5097873;28;20413;-76
2021/12/30 00:33:40;;;;;;;1.90;1.00;;;;;;;;;;5097581;28;20491;-76
2021/12/30 00:36:09;;;;;;;1.17;1.07;;;;;;;;;;5097389;28;20479;-76
2021/12/30 00:38:36;;;;;;;0.77;0.77;;;;;;;;;;5097368;28;20417;-76
2021/12/30 00:41:03;;;;;;;2.03;0.80;;;;;;;;;;5097399;28;20769;-76
2021/12/30 00:43:31;;;;;;;1.70;1.07;;;;;;;;;;5097113;28;20489;-76
2021/12/30 00:45:59;;;;;;;2.30;1.00;;;;;;;;;;5097240;28;20437;-77
2021/12/30 00:48:26;;;;;;;0.90;0.90;;;;;;;;;;5096897;28;20503;-77
2021/12/30 00:50:54;;;;;;;1.90;1.10;;;;;;;;;;5097008;28;20449;-76
2021/12/30 00:53:21;;;;;;;1.75;1.08;;;;;;;;;;5100281;28;20425;-77
2021/12/30 00:55:48;;;;;;;0.83;0.80;;;;;;;;;;5100709;28;20202;-77
2021/12/30 00:58:15;;;;;;;1.47;1.07;;;;;;;;;;5100516;28;20421;-77
2021/12/30 01:00:43;;;;;;;0.77;0.73;;;;;;;;;;5079099;28;20440;-76
2021/12/30 01:03:12;;;;;;;1.20;1.07;;;;;;;;;;5075110;28;20522;-76
2021/12/30 01:05:40;;;;;;;0.87;0.80;;;;;;;;;;5075180;28;20464;-76
2021/12/30 01:08:07;;;;;;;1.57;0.80;;;;;;;;;;5074934;28;20476;-76
2021/12/30 01:10:35;;;;;;;0.90;0.90;;;;;;;;;;5075174;28;20453;-77
2021/12/30 01:13:05;;;;;;;1.33;0.87;;;;;;;;;;5074746;28;20517;-76
2021/12/30 01:15:45;;;;;;;0.90;0.90;;;;;;;;;;5074595;28;20474;-76
2021/12/30 01:18:28;;;;;;;1.37;1.13;;;;;;;;;;5074352;28;20455;-75
2021/12/30 01:20:56;;;;;;;1.03;1.03;;;;;;;;;;5074888;28;20524;-76
2021/12/30 01:23:23;;;;;;;1.20;1.10;;;;;;;;;;5074825;28;20517;-76
2021/12/30 01:25:50;;;;;;;1.40;1.03;;;;;;;;;;5074689;28;20456;-77
2021/12/30 01:28:17;;;;;;;0.70;0.70;;;;;;;;;;5074110;28;20479;-77
2021/12/30 01:30:44;;;;;;;0.80;0.80;;;;;;;;;;5074437;28;20441;-77
2021/12/30 01:33:11;;;;;;;0.73;0.73;;;;;;;;;;5074239;28;20453;-77
2021/12/30 01:35:39;;;;;;;1.53;1.07;;;;;;;;;;5074617;28;20225;-76
2021/12/30 01:38:11;;;;;;;0.83;0.83;;;;;;;;;;5074620;28;20445;-76
2021/12/30 01:40:40;;;;;;;1.40;0.90;;;;;;;;;;5074216;28;20441;-77
2021/12/30 01:43:07;;;;;;;1.50;1.03;;;;;;;;;;5074046;28;20449;-75
2021/12/30 01:45:34;;;;;;;0.90;0.90;;;;;;;;;;5074012;28;20515;-75
2021/12/30 01:48:01;;;;;;;1.25;1.15;;;;;;;;;;5074478;28;20468;-76
2021/12/30 01:50:28;;;;;;;2.33;0.80;;;;;;;;;;5074078;28;20682;-77
2021/12/30 01:52:58;;;;;;;1.90;1.00;;;;;;;;;;5074039;28;20440;-77
2021/12/30 01:55:26;;;;;;;1.30;1.20;;;;;;;;;;5074089;28;20464;-77
2021/12/30 01:57:53;;;;;;;1.90;1.20;;;;;;;;;;5073769;28;20924;-76
2021/12/30 02:00:21;;;;;;;0.93;0.90;;;;;;;;;;5074221;28;20441;-77
2021/12/30 02:02:48;;;;;;;1.90;1.07;;;;;;;;;;5064989;28;20531;-76
2021/12/30 02:05:15;;;;;;;1.50;1.03;;;;;;;;;;5053979;28;20492;-77
2021/12/30 02:07:42;;;;;;;1.63;1.08;;;;;;;;;;5053801;28;20591;-77
2021/12/30 02:10:12;;;;;;;4.60;1.20;;;;;;;;;;5054234;28;20623;-76
2021/12/30 02:12:40;;;;;;;1.33;1.00;;;;;;;;;;5053594;28;20980;-75
2021/12/30 02:15:08;;;;;;;1.77;1.20;;;;;;;;;;5053757;28;20519;-77
2021/12/30 02:17:35;;;;;;;1.25;1.10;;;;;;;;;;5053687;28;20482;-77
2021/12/30 02:20:05;;;;;;;1.90;1.10;;;;;;;;;;5053686;28;20195;-76
2021/12/30 02:22:32;;;;;;;1.73;1.30;;;;;;;;;;5053612;28;20446;-76
2021/12/30 02:24:59;;;;;;;1.63;1.40;;;;;;;;;;5053606;28;20454;-76
2021/12/30 02:27:26;;;;;;;1.43;1.00;;;;;;;;;;5053373;28;20481;-76
2021/12/30 02:29:54;;;;;;;2.87;1.33;;;;;;;;;;5053145;28;21022;-76
2021/12/30 02:32:22;;;;;;;1.23;1.20;;;;;;;;;;5053161;28;20441;-76
2021/12/30 02:34:49;;;;;;;2.23;1.47;;;;;;;;;;5053080;28;20476;-76
2021/12/30 02:37:18;;;;;;;3.00;1.13;;;;;;;;;;5053194;28;20461;-76
2021/12/30 02:39:49;;;;;;;3.20;1.23;;;;;;;;;;5053016;28;20967;-77
2021/12/30 02:42:16;;;;;;;1.03;0.70;;;;;;;;;;5053475;28;20481;-76
2021/12/30 02:44:43;;;;;;;2.20;1.03;;;;;;;;;;5052770;28;20437;-77
2021/12/30 02:47:14;;;;;;;2.70;1.10;;;;;;;;;;5052897;28;20468;-77
2021/12/30 02:49:41;;;;;;;2.53;0.90;;;;;;;;;;5052872;28;20947;-76
2021/12/30 02:52:08;;;;;;;1.23;0.90;;;;;;;;;;5052985;28;20441;-77
2021/12/30 02:54:39;;;;;;;1.33;0.77;;;;;;;;;;5053092;28;20445;-76
2021/12/30 02:57:06;;;;;;;1.70;1.00;;;;;;;;;;5052752;28;20251;-76
2021/12/30 02:59:33;;;;;;;1.80;1.10;;;;;;;;;;5052858;28;20433;-76
2021/12/30 03:02:00;;;;;;;0.87;0.87;;;;;;;;;;5052776;28;20480;-76
2021/12/30 03:04:29;;;;;;;1.57;1.00;;;;;;;;;;5053111;28;20445;-76
2021/12/30 03:06:57;;;;;;;0.83;0.83;;;;;;;;;;5052791;28;20462;-76
2021/12/30 03:09:24;;;;;;;2.53;0.85;;;;;;;;;;5052883;28;20575;-77
2021/12/30 03:11:52;;;;;;;0.67;0.67;;;;;;;;;;5052483;28;20732;-76
2021/12/30 03:14:22;;;;;;;3.40;1.00;;;;;;;;;;5051495;28;20933;-76
2021/12/30 03:16:49;;;;;;;0.90;0.90;;;;;;;;;;5052804;28;20525;-76
2021/12/30 03:19:16;;;;;;;1.08;1.08;;;;;;;;;;5052432;28;20584;-76
2021/12/30 03:21:43;;;;;;;0.83;0.80;;;;;;;;;;5052723;28;20199;-76
2021/12/30 03:24:10;;;;;;;2.92;0.80;;;;;;;;;;5052317;28;20463;-76
2021/12/30 03:26:37;;;;;;;1.33;1.00;;;;;;;;;;5052330;28;20223;-77
2021/12/30 03:29:06;;;;;;;0.80;0.80;;;;;;;;;;5051989;28;20856;-76
2021/12/30 03:31:33;;;;;;;0.75;0.75;;;;;;;;;;5052450;28;20442;-76
2021/12/30 03:34:00;;;;;;;0.90;0.90;;;;;;;;;;5051750;28;20210;-75
2021/12/30 03:36:27;;;;;;;0.70;0.70;;;;;;;;;;5052147;28;20461;-76
2021/12/30 03:38:56;;;;;;;1.47;0.93;;;;;;;;;;5052022;28;20449;-76
2021/12/30 03:41:25;;;;;;;0.95;0.88;;;;;;;;;;5052218;28;20475;-76
2021/12/30 03:43:52;;;;;;;0.83;0.83;;;;;;;;;;5051791;28;20232;-76
2021/12/30 03:46:20;;;;;;;0.50;0.50;;;;;;;;;;5051931;28;20974;-77
2021/12/30 03:48:48;;;;;;;0.87;0.83;;;;;;;;;;5057426;28;20218;-76
2021/12/30 03:51:21;;;;;;;0.87;0.87;;;;;;;;;;5062132;28;20936;-76
2021/12/30 03:53:49;;;;;;;0.70;0.70;;;;;;;;;;5053565;28;20456;-76
2021/12/30 03:56:16;;;;;;;1.97;0.90;;;;;;;;;;5053101;28;20469;-75
2021/12/30 03:58:45;;;;;;;1.03;1.00;;;;;;;;;;5052718;28;20438;-77
2021/12/30 04:01:14;;;;;;;0.80;0.80;;;;;;;;;;5053557;28;20559;-75
2021/12/30 04:03:42;;;;;;;0.80;0.80;;;;;;;;;;5051749;28;20929;-77
2021/12/30 04:06:09;;;;;;;0.77;0.77;;;;;;;;;;5051929;28;20511;-76
2021/12/30 04:08:37;;;;;;;1.00;0.90;;;;;;;;;;5052183;28;20822;-76
2021/12/30 04:11:04;;;;;;;0.85;0.85;;;;;;;;;;5051883;28;20673;-76
2021/12/30 04:13:32;;;;;;;3.10;0.87;;;;;;;;;;5051907;28;20664;-76
2021/12/30 04:15:59;;;;;;;1.37;0.90;;;;;;;;;;5052014;28;20574;-76
2021/12/30 04:18:26;;;;;;;0.83;0.80;;;;;;;;;;5052035;28;20441;-74
2021/12/30 04:20:55;;;;;;;1.33;0.87;;;;;;;;;;5051950;28;20906;-76
2021/12/30 04:23:22;;;;;;;0.90;0.90;;;;;;;;;;5051228;28;20453;-76
2021/12/30 04:25:49;;;;;;;1.20;1.10;;;;;;;;;;5051495;28;20461;-77
2021/12/30 04:28:16;;;;;;;0.80;0.80;;;;;;;;;;5051610;28;20477;-77
2021/12/30 04:30:43;;;;;;;0.93;0.60;;;;;;;;;;5051620;28;20925;-76
2021/12/30 04:33:10;;;;;;;0.93;0.80;;;;;;;;;;5051597;28;20850;-76
2021/12/30 04:35:37;;;;;;;2.80;0.70;;;;;;;;;;5051910;28;20469;-77
2021/12/30 04:38:05;;;;;;;0.77;0.73;;;;;;;;;;5051151;28;20206;-76
2021/12/30 04:40:33;;;;;;;2.60;1.00;;;;;;;;;;5050936;28;20210;-76
2021/12/30 04:43:00;;;;;;;0.97;0.97;;;;;;;;;;5051256;28;20456;-76
2021/12/30 04:45:28;;;;;;;0.83;0.70;;;;;;;;;;5067045;28;20464;-76
2021/12/30 04:47:55;;;;;;;2.33;0.90;;;;;;;;;;5070963;28;20443;-76
2021/12/30 04:50:22;;;;;;;0.70;0.70;;;;;;;;;;5071316;28;20464;-77
2021/12/30 04:52:50;;;;;;;0.70;0.70;;;;;;;;;;5070902;28;20265;-76
2021/12/30 04:55:18;;;;;;;0.80;0.80;;;;;;;;;;5071196;28;20221;-76
2021/12/30 04:57:45;;;;;;;0.80;0.80;;;;;;;;;;5070961;28;20854;-77
2021/12/30 05:00:13;;;;;;;1.13;1.07;;;;;;;;;;5071287;28;20240;-76
2021/12/30 05:03:07;;;;;;;0.77;0.77;;;;;;;;;;5070924;28;20475;-76
2021/12/30 05:05:34;;;;;;;0.80;0.80;;;;;;;;;;5071356;28;20475;-76
2021/12/30 05:08:01;;;;;;;0.80;0.80;;;;;;;;;;5070945;28;20825;-77
2021/12/30 05:10:30;;;;;;;1.07;0.80;;;;;;;;;;5071107;28;20214;-77
2021/12/30 05:12:57;;;;;;;2.00;0.90;;;;;;;;;;5071144;28;20448;-76
2021/12/30 05:15:24;;;;;;;0.80;0.80;;;;;;;;;;5070669;28;20807;-75
2021/12/30 05:17:51;;;;;;;1.00;1.00;;;;;;;;;;5070992;28;20551;-76
2021/12/30 05:20:18;;;;;;;2.23;1.43;;;;;;;;;;5071271;28;20452;-77
2021/12/30 05:22:45;;;;;;;0.90;0.90;;;;;;;;;;5071145;28;20471;-76
2021/12/30 05:25:13;;;;;;;1.40;0.90;;;;;;;;;;5071223;28;20436;-76
2021/12/30 05:27:41;;;;;;;1.93;1.30;;;;;;;;;;5070573;28;20932;-75
2021/12/30 05:30:10;;;;;;;1.40;1.30;;;;;;;;;;5070736;28;20476;-76
2021/12/30 05:32:37;;;;;;;1.07;1.00;;;;;;;;;;5070249;28;20444;-76
2021/12/30 05:35:04;;;;;;;1.70;1.00;;;;;;;;;;5070654;28;20445;-76
2021/12/30 05:37:32;;;;;;;1.43;0.90;;;;;;;;;;5070569;28;20497;-76
2021/12/30 05:39:59;;;;;;;1.50;1.10;;;;;;;;;;5072538;28;20432;-77
2021/12/30 05:42:26;;;;;;;1.30;1.10;;;;;;;;;;5073062;28;20987;-77
2021/12/30 05:44:55;;;;;;;1.10;1.10;;;;;;;;;;5072465;28;20439;-77
2021/12/30 05:47:23;;;;;;;1.30;1.20;;;;;;;;;;5072613;28;20440;-76
2021/12/30 05:49:50;;;;;;;1.20;1.10;;;;;;;;;;5072688;28;20218;-76
2021/12/30 05:52:17;;;;;;;1.43;1.00;;;;;;;;;;5072438;28;20449;-76
2021/12/30 05:54:44;;;;;;;1.70;1.10;;;;;;;;;;5072715;28;20502;-75
2021/12/30 05:57:11;;;;;;;1.02;0.77;;;;;;;;;;5072821;28;20486;-76
2021/12/30 05:59:38;;;;;;;0.80;0.80;;;;;;;;;;5072685;28;20198;-76
2021/12/30 06:02:07;;;;;;;1.70;1.07;;;;;;;;;;5072500;28;20455;-76
2021/12/30 06:04:34;;;;;;;3.57;0.70;;;;;;;;;;5072553;28;20452;-76
2021/12/30 06:07:01;;;;;;;1.23;0.93;;;;;;;;;;5072494;28;20525;-76
2021/12/30 06:09:28;;;;;;;0.73;0.73;;;;;;;;;;5072452;28;20522;-76
2021/12/30 06:11:55;;;;;;;1.20;1.10;;;;;;;;;;5072407;28;20970;-76
2021/12/30 06:14:22;;;;;;;0.80;0.80;;;;;;;;;;5072054;28;20450;-75
2021/12/30 06:16:49;;;;;;;1.13;0.90;;;;;;;;;;5072156;28;20472;-76
2021/12/30 06:19:18;;;;;;;0.83;0.80;;;;;;;;;;5072055;28;20842;-75
2021/12/30 06:21:45;;;;;;;1.10;1.00;;;;;;;;;;5071910;28;20510;-76
2021/12/30 06:24:12;;;;;;;0.97;0.97;;;;;;;;;;5071827;28;20498;-77
2021/12/30 06:26:39;;;;;;;0.80;0.80;;;;;;;;;;5071366;28;20475;-77
2021/12/30 06:29:06;;;;;;;0.80;0.80;;;;;;;;;;5072004;28;20567;-76
2021/12/30 06:31:33;;;;;;;1.90;1.10;;;;;;;;;;5072187;28;20505;-77
2021/12/30 06:34:00;;;;;;;1.00;0.90;;;;;;;;;;5071699;28;20480;-77
2021/12/30 06:36:29;;;;;;;2.30;2.10;;;;;;;;;;5071570;28;20222;-77
2021/12/30 06:38:56;;;;;;;1.63;1.20;;;;;;;;;;5071786;28;20862;-76
2021/12/30 06:41:23;;;;;;;0.90;0.90;;;;;;;;;;5071504;28;20429;-76
2021/12/30 06:43:50;;;;;;;0.80;0.80;;;;;;;;;;5071728;28;20495;-77
2021/12/30 06:46:20;;;;;;;0.90;0.90;;;;;;;;;;5071212;28;20464;-76
2021/12/30 06:48:47;;;;;;;0.83;0.83;;;;;;;;;;5070357;28;20975;-76
2021/12/30 06:51:14;;;;;;;0.80;0.80;;;;;;;;;;5073021;28;20487;-77
2021/12/30 06:53:42;;;;;;;0.70;0.70;;;;;;;;;;5081450;28;20451;-77
2021/12/30 06:56:09;;;;;;;0.63;0.63;;;;;;;;;;5095928;28;20444;-77
2021/12/30 06:58:36;;;;;;;0.70;0.70;;;;;;;;;;5093504;28;20449;-78
2021/12/30 07:01:04;;;;;;;0.60;0.60;;;;;;;;;;5094836;28;20203;-78
2021/12/30 07:03:31;;;;;;;1.13;1.10;;;;;;;;;;5097922;28;20190;-76
2021/12/30 07:05:58;;;;;;;1.85;0.80;;;;;;;;;;5095292;28;20502;-76
2021/12/30 07:08:25;;;;;;;1.00;0.90;;;;;;;;;;5090568;28;20198;-76
2021/12/30 07:10:53;;;;;;;0.80;0.80;;;;;;;;;;5083712;28;20518;-77
2021/12/30 07:13:20;;;;;;;1.20;1.10;;;;;;;;;;5073487;28;20952;-76
2021/12/30 07:15:47;;;;;;;1.00;1.00;;;;;;;;;;5072427;28;20586;-76
2021/12/30 07:18:14;;;;;;;1.17;1.17;;;;;;;;;;5071648;28;20478;-76
2021/12/30 07:20:41;;;;;;;21.45;19.08;;;;;;;;;;5072135;28;20832;-76
2021/12/30 07:23:08;;;;;;;9.33;8.40;;;;;;;;;;5074652;28;20203;-77
2021/12/30 07:25:36;;;;;;;4.60;3.63;;;;;;;;;;5074233;28;20518;-76
2021/12/30 07:28:04;;;;;;;3.97;2.63;;;;;;;;;;5072445;28;20597;-76
2021/12/30 07:30:32;;;;;;;1.27;1.17;;;;;;;;;;5071462;28;20850;-77
2021/12/30 07:32:59;;;;;;;1.07;0.97;;;;;;;;;;5071101;28;20439;-77
2021/12/30 07:35:26;;;;;;;1.00;1.00;;;;;;;;;;5070432;28;20526;-76
2021/12/30 07:37:54;;;;;;;0.90;0.90;;;;;;;;;;5070432;28;20444;-77
2021/12/30 07:40:21;;;;;;;2.00;0.87;;;;;;;;;;5070681;28;20809;-76
2021/12/30 07:42:48;;;;;;;1.90;1.80;;;;;;;;;;5079926;28;20445;-77
2021/12/30 07:45:16;;;;;;;0.80;0.80;;;;;;;;;;5091397;28;20437;-77
2021/12/30 07:47:44;;;;;;;0.90;0.70;;;;;;;;;;5097002;28;20437;-77
2021/12/30 07:50:11;;;;;;;0.60;0.60;;;;;;;;;;5096501;28;20502;-77
2021/12/30 07:52:39;;;;;;;0.63;0.63;;;;;;;;;;5097808;28;20182;-77
2021/12/30 07:55:06;;;;;;;1.83;0.63;;;;;;;;;;5097803;28;20428;-76
2021/12/30 07:57:33;;;;;;;0.60;0.60;;;;;;;;;;5097115;28;20445;-77
2021/12/30 08:00:00;;;;;;;0.60;0.60;;;;;;;;;;5080735;28;20440;-75
2021/12/30 08:02:29;;;;;;;0.80;0.80;;;;;;;;;;5078473;28;20893;-76
2021/12/30 08:04:56;;;;;;;1.00;1.00;;;;;;;;;;5071082;28;20490;-78
2021/12/30 08:07:24;;;;;;;0.90;0.90;;;;;;;;;;5070830;28;20445;-78
2021/12/30 08:09:51;;;;;;;1.07;0.80;;;;;;;;;;5070566;28;20842;-77
2021/12/30 08:12:18;;;;;;;1.42;0.80;;;;;;;;;;5071282;28;20429;-76
2021/12/30 08:14:45;;;;;;;0.93;0.93;;;;;;;;;;5071274;28;20212;-77
2021/12/30 08:17:12;;;;;;;0.90;0.90;;;;;;;;;;5072054;28;20473;-77
2021/12/30 08:19:41;;;;;;;1.17;1.13;;;;;;;;;;5075516;28;20479;-78
2021/12/30 08:22:08;;;;;;;1.27;1.00;;;;;;;;;;5075783;28;20448;-78
2021/12/30 08:24:35;;;;;;;0.90;0.90;;;;;;;;;;5075421;28;20206;-77
2021/12/30 08:27:02;;;;;;;1.23;0.90;;;;;;;;;;5077277;28;20490;-77
2021/12/30 08:29:31;;;;;;;1.30;1.27;;;;;;;;;;5081742;28;20541;-75
2021/12/30 08:31:58;;;;;;;1.33;0.90;;;;;;;;;;5087016;28;20993;-78
2021/12/30 08:34:25;;;;;;;1.27;1.23;;;;;;;;;;5085153;28;20228;-76
2021/12/30 08:36:53;;;;;;;1.03;1.03;;;;;;;;;;5083485;28;20465;-77
2021/12/30 08:39:21;;;;;;;0.93;0.93;;;;;;;;;;5083026;28;20502;-78
2021/12/30 08:41:48;;;;;;;2.10;1.07;;;;;;;;;;5083902;28;20460;-77
2021/12/30 08:44:15;;;;;;;1.37;1.27;;;;;;;;;;5076172;28;20444;-77
2021/12/30 08:46:42;;;;;;;1.13;0.93;;;;;;;;;;5072839;28;20471;-77
2021/12/30 08:49:09;;;;;;;1.00;1.00;;;;;;;;;;5072623;28;20444;-77
2021/12/30 08:51:36;;;;;;;2.00;0.90;;;;;;;;;;5086610;28;20232;-75
2021/12/30 08:54:04;;;;;;;3.00;2.20;;;;;;;;;;5095104;28;20440;-75
2021/12/30 08:56:32;;;;;;;1.00;1.00;;;;;;;;;;5095141;28;20206;-73
2021/12/30 08:58:59;;;;;;;1.13;1.13;;;;;;;;;;5096778;28;20432;-74
2021/12/30 09:01:26;;;;;;;1.33;1.20;;;;;;;;;;5096607;28;20444;-75
2021/12/30 09:03:53;;;;;;;0.90;0.90;;;;;;;;;;5096333;28;20409;-77
2021/12/30 09:06:20;;;;;;;1.53;1.10;;;;;;;;;;5096427;28;20476;-75
2021/12/30 09:08:47;;;;;;;1.80;1.10;;;;;;;;;;5096219;28;20428;-75
2021/12/30 09:11:15;;;;;;;1.00;1.00;;;;;;;;;;5095594;28;20484;-78
2021/12/30 09:13:42;;;;;;;1.13;0.80;;;;;;;;;;5098444;28;20437;-76
2021/12/30 09:16:09;;;;;;;1.10;1.00;;;;;;;;;;5099382;28;20249;-75
2021/12/30 09:18:36;;;;;;;1.00;1.00;;;;;;;;;;5099023;28;20471;-77
2021/12/30 09:21:03;;;;;;;0.90;0.90;;;;;;;;;;5098238;28;20228;-75
2021/12/30 09:23:31;;;;;;;2.03;0.93;;;;;;;;;;5093772;28;20480;-77
2021/12/30 09:25:58;;;;;;;1.03;0.90;;;;;;;;;;5098412;28;20457;-79
2021/12/30 09:28:26;;;;;;;1.20;1.20;;;;;;;;;;5098332;28;20444;-77
2021/12/30 09:30:53;;;;;;;1.00;0.90;;;;;;;;;;5099620;28;20476;-79
2021/12/30 09:33:21;;;;;;;0.77;0.77;;;;;;;;;;5097546;28;20416;-77
2021/12/30 09:35:48;;;;;;;0.90;0.90;;;;;;;;;;5097284;28;20491;-79
2021/12/30 09:38:15;;;;;;;1.20;1.10;;;;;;;;;;5097349;28;20440;-78
2021/12/30 09:40:44;;;;;;;0.77;0.77;;;;;;;;;;5097639;28;20421;-79
2021/12/30 09:43:11;;;;;;;0.80;0.80;;;;;;;;;;5092869;28;20217;-79
2021/12/30 09:45:40;;;;;;;0.90;0.90;;;;;;;;;;5098013;28;20471;-78
2021/12/30 09:48:09;;;;;;;0.70;0.70;;;;;;;;;;5098284;28;20440;-78
2021/12/30 09:50:37;;;;;;;0.70;0.70;;;;;;;;;;5096642;28;20456;-78
2021/12/30 09:53:05;;;;;;;0.73;0.73;;;;;;;;;;5092764;28;20439;-79
2021/12/30 09:55:32;;;;;;;1.20;1.10;;;;;;;;;;5095835;28;20437;-77
2021/12/30 09:57:59;;;;;;;0.90;0.90;;;;;;;;;;5091828;28;20264;-77
2021/12/30 10:00:26;;;;;;;0.90;0.90;;;;;;;;;;5085593;28;20455;-78
2021/12/30 10:02:55;;;;;;;0.83;0.80;;;;;;;;;;5084361;28;20784;-78
2021/12/30 10:05:24;;;;;;;0.80;0.70;;;;;;;;;;5085133;28;20968;-76
2021/12/30 10:07:51;;;;;;;0.50;0.50;;;;;;;;;;5083891;28;20441;-79
2021/12/30 10:10:29;;;;;;;0.87;0.73;;;;;;;;;;5081109;28;20590;-76
2021/12/30 10:12:56;;;;;;;2.20;0.70;;;;;;;;;;5075208;28;20459;-78
2021/12/30 10:15:26;;;;;;;0.70;0.70;;;;;;;;;;5075274;28;20476;-77
2021/12/30 10:17:59;;;;;;;0.70;0.70;;;;;;;;;;5072278;28;20425;-78
2021/12/30 10:20:27;;;;;;;0.70;0.70;;;;;;;;;;5076250;28;20440;-77
2021/12/30 10:22:55;;;;;;;1.17;1.07;;;;;;;;;;5073772;28;20982;-77
2021/12/30 10:25:26;;;;;;;1.20;0.67;;;;;;;;;;5079902;28;20464;-77
2021/12/30 10:27:54;;;;;;;3.83;0.88;;;;;;;;;;5073280;28;20506;-77
2021/12/30 10:30:29;;;;;;;0.90;0.90;;;;;;;;;;5065342;28;20490;-77
2021/12/30 10:33:10;;;;;;;1.23;0.83;;;;;;;;;;5070461;28;20194;-78
2021/12/30 10:35:37;;;;;;;0.70;0.70;;;;;;;;;;5071912;28;20464;-77
2021/12/30 10:38:09;;;;;;;0.70;0.70;;;;;;;;;;5062980;28;20488;-77
2021/12/30 10:40:37;;;;;;;0.80;0.80;;;;;;;;;;5074134;28;20194;-78
2021/12/30 10:43:17;;;;;;;0.97;0.87;;;;;;;;;;5064604;28;20445;-78
2021/12/30 10:45:44;;;;;;;0.90;0.90;;;;;;;;;;5072085;28;20499;-76
2021/12/30 10:48:13;;;;;;;1.20;0.70;;;;;;;;;;5071218;28;20452;-77
2021/12/30 10:50:40;;;;;;;0.60;0.60;;;;;;;;;;5072177;28;20534;-76
2021/12/30 10:53:07;;;;;;;0.60;0.60;;;;;;;;;;5067806;28;20442;-77
2021/12/30 10:55:34;;;;;;;0.50;0.50;;;;;;;;;;5070032;28;20476;-77
2021/12/30 10:58:01;;;;;;;0.70;0.70;;;;;;;;;;5064852;28;21070;-77
2021/12/30 11:00:29;;;;;;;0.83;0.83;;;;;;;;;;5074621;28;20198;-77
2021/12/30 11:02:56;;;;;;;0.77;0.70;;;;;;;;;;5081757;28;20452;-77
2021/12/30 11:05:24;;;;;;;1.23;1.00;;;;;;;;;;5077948;28;20522;-77
2021/12/30 11:07:52;;;;;;;0.80;0.77;;;;;;;;;;5076097;28;20586;-77
2021/12/30 11:10:30;;;;;;;0.70;0.70;;;;;;;;;;5078379;28;20481;-77
2021/12/30 11:13:09;;;;;;;1.13;1.10;;;;;;;;;;5079717;28;20770;-77
2021/12/30 11:15:36;;;;;;;0.50;0.50;;;;;;;;;;5080803;28;20245;-78
2021/12/30 11:18:07;;;;;;;0.60;0.60;;;;;;;;;;5077017;28;20252;-79
2021/12/30 11:20:39;;;;;;;0.63;0.63;;;;;;;;;;5072098;28;20448;-79
2021/12/30 11:23:06;;;;;;;7.00;6.27;;;;;;;;;;5075051;28;20465;-79
2021/12/30 11:25:33;;;;;;;37.77;32.03;;;;;;;;;;5074510;28;20461;-80
2021/12/30 11:28:00;;;;;;;1.77;1.67;;;;;;;;;;5074524;28;20437;-78
2021/12/30 11:30:27;;;;;;;0.83;0.73;;;;;;;;;;5074454;28;20489;-79
2021/12/30 11:32:54;;;;;;;0.93;0.63;;;;;;;;;;5071954;28;20456;-77
2021/12/30 11:35:23;;;;;;;0.73;0.73;;;;;;;;;;5074093;28;20460;-78
2021/12/30 11:37:52;;;;;;;0.85;0.80;;;;;;;;;;5075968;28;20446;-78
2021/12/30 11:40:23;;;;;;;1.60;1.50;;;;;;;;;;5073579;28;20228;-79
2021/12/30 11:42:52;;;;;;;0.50;0.50;;;;;;;;;;5074164;28;20479;-78
2021/12/30 11:45:26;;;;;;;0.53;0.53;;;;;;;;;;5057217;28;20548;-79
2021/12/30 11:47:54;;;;;;;0.57;0.57;;;;;;;;;;5055337;28;20444;-78
2021/12/30 11:50:30;;;;;;;0.60;0.57;;;;;;;;;;5055085;28;20453;-80
2021/12/30 11:53:07;;;;;;;0.73;0.73;;;;;;;;;;5054757;28;20421;-80
2021/12/30 11:55:48;;;;;;;0.80;0.73;;;;;;;;;;5071549;28;20468;-78
2021/12/30 11:58:32;;;;;;;1.10;0.63;;;;;;;;;;5069030;28;20453;-79
2021/12/30 12:01:00;;;;;;;0.50;0.50;;;;;;;;;;5074538;28;20432;-79
2021/12/30 12:03:30;;;;;;;0.40;0.40;;;;;;;;;;5067565;28;20459;-79
2021/12/30 12:05:57;;;;;;;1.67;1.57;;;;;;;;;;5073841;28;20297;-79
2021/12/30 12:08:30;;;;;;;0.50;0.50;;;;;;;;;;5074769;28;20565;-77
2021/12/30 12:11:11;;;;;;;0.80;0.43;;;;;;;;;;5073681;28;20480;-78
2021/12/30 12:13:39;;;;;;;0.50;0.50;;;;;;;;;;5075505;28;20444;-78
2021/12/30 12:16:06;;;;;;;0.60;0.30;;;;;;;;;;5074717;28;20469;-78
2021/12/30 12:18:33;;;;;;;0.40;0.40;;;;;;;;;;5073867;28;20490;-78
2021/12/30 12:21:01;;;;;;;0.50;0.50;;;;;;;;;;5077026;28;20468;-78
2021/12/30 12:23:34;;;;;;;0.50;0.50;;;;;;;;;;5076795;28;20310;-80
2021/12/30 12:26:09;;;;;;;0.47;0.47;;;;;;;;;;5073541;28;20221;-77
2021/12/30 12:28:36;;;;;;;0.47;0.47;;;;;;;;;;5075404;28;20481;-77
2021/12/30 12:31:06;;;;;;;0.40;0.40;;;;;;;;;;5075133;28;20485;-78
2021/12/30 12:33:33;;;;;;;2.30;0.70;;;;;;;;;;5073194;28;20199;-79
2021/12/30 12:36:00;;;;;;;0.40;0.40;;;;;;;;;;5072730;28;20464;-78
2021/12/30 12:38:39;;;;;;;0.60;0.60;;;;;;;;;;5080523;28;20895;-78
2021/12/30 12:41:17;;;;;;;0.70;0.70;;;;;;;;;;5093356;28;20455;-79
2021/12/30 12:43:44;;;;;;;0.88;0.45;;;;;;;;;;5095031;28;20175;-78
2021/12/30 12:46:11;;;;;;;0.37;0.37;;;;;;;;;;5096473;28;20240;-79
2021/12/30 12:48:39;;;;;;;0.40;0.40;;;;;;;;;;5099783;28;20663;-78
2021/12/30 12:51:08;;;;;;;1.00;1.00;;;;;;;;;;5100126;28;20475;-77
2021/12/30 12:53:41;;;;;;;1.40;0.60;;;;;;;;;;5079975;28;20430;-79
2021/12/30 12:56:09;;;;;;;0.77;0.50;;;;;;;;;;5079706;28;20473;-79
2021/12/30 12:58:38;;;;;;;0.50;0.50;;;;;;;;;;5080075;28;20422;-78
2021/12/30 13:01:05;;;;;;;0.60;0.60;;;;;;;;;;5080235;28;20434;-78
2021/12/30 13:03:35;;;;;;;0.60;0.60;;;;;;;;;;5078615;28;20429;-79
2021/12/30 13:06:03;;;;;;;0.40;0.40;;;;;;;;;;5079307;28;20445;-78
2021/12/30 13:08:31;;;;;;;0.60;0.50;;;;;;;;;;5078817;28;20443;-78
2021/12/30 13:11:00;;;;;;;0.43;0.43;;;;;;;;;;5078625;28;20503;-78
2021/12/30 13:13:31;;;;;;;1.00;1.00;;;;;;;;;;5078455;28;20474;-77
2021/12/30 13:15:58;;;;;;;0.40;0.40;;;;;;;;;;5091424;28;20203;-78
2021/12/30 13:18:26;;;;;;;0.80;0.80;;;;;;;;;;5056270;28;20195;-79
2021/12/30 13:20:53;;;;;;;0.80;0.80;;;;;;;;;;5057373;28;20444;-78
2021/12/30 13:23:28;;;;;;;0.63;0.63;;;;;;;;;;5055536;28;20203;-78
2021/12/30 13:26:04;;;;;;;0.57;0.57;;;;;;;;;;5056931;28;20519;-79
2021/12/30 13:28:32;;;;;;;0.70;0.50;;;;;;;;;;5056788;28;20203;-79
2021/12/30 13:31:09;;;;;;;0.53;0.53;;;;;;;;;;5056428;28;20469;-78
2021/12/30 13:33:36;;;;;;;1.27;0.90;;;;;;;;;;5055348;28;20811;-78
2021/12/30 13:36:13;;;;;;;0.50;0.50;;;;;;;;;;5056133;28;20462;-77
2021/12/30 13:38:40;;;;;;;0.50;0.50;;;;;;;;;;5055433;28;20465;-78
2021/12/30 13:41:14;;;;;;;0.40;0.40;;;;;;;;;;5055520;28;20433;-79
2021/12/30 13:43:41;;;;;;;1.03;0.50;;;;;;;;;;5054950;28;20479;-78
2021/12/30 13:46:09;;;;;;;0.97;0.93;;;;;;;;;;5055700;28;20531;-78
2021/12/30 13:48:37;;;;;;;1.00;1.00;;;;;;;;;;5056250;28;20437;-79
2021/12/30 13:51:05;;;;;;;0.50;0.50;;;;;;;;;;5055695;28;20477;-78
2021/12/30 13:53:34;;;;;;;0.60;0.60;;;;;;;;;;5055349;28;20448;-78
2021/12/30 13:56:02;;;;;;;1.48;0.80;;;;;;;;;;5055987;28;20948;-78
2021/12/30 13:58:34;;;;;;;1.20;0.60;;;;;;;;;;5055165;28;20199;-79
2021/12/30 14:01:02;;;;;;;3.03;0.70;;;;;;;;;;5055718;28;20434;-79
2021/12/30 14:03:30;;;;;;;0.50;0.50;;;;;;;;;;5055992;28;20445;-78
2021/12/30 14:06:04;;;;;;;0.60;0.60;;;;;;;;;;5055207;28;20223;-80
2021/12/30 14:08:31;;;;;;;0.50;0.50;;;;;;;;;;5055917;28;20464;-80
2021/12/30 14:11:00;;;;;;;0.47;0.47;;;;;;;;;;5055045;28;20453;-78
2021/12/30 14:13:39;;;;;;;0.60;0.60;;;;;;;;;;5054870;28;20450;-78
2021/12/30 14:16:07;;;;;;;1.37;0.60;;;;;;;;;;5054554;28;20464;-78
2021/12/30 14:18:35;;;;;;;0.70;0.70;;;;;;;;;;5054607;28;20449;-78
2021/12/30 14:21:03;;;;;;;0.80;0.80;;;;;;;;;;5054554;28;20884;-79
2021/12/30 14:23:31;;;;;;;1.10;1.10;;;;;;;;;;5053952;28;20437;-80
2021/12/30 14:26:08;;;;;;;1.07;0.50;;;;;;;;;;5067827;28;20495;-78
2021/12/30 14:28:35;;;;;;;0.70;0.70;;;;;;;;;;5058825;28;20494;-77
2021/12/30 14:31:04;;;;;;;0.60;0.60;;;;;;;;;;5073968;28;20433;-79
2021/12/30 14:33:32;;;;;;;0.60;0.60;;;;;;;;;;5074299;28;20449;-77
2021/12/30 14:36:09;;;;;;;1.37;1.27;;;;;;;;;;5074409;28;20464;-77
2021/12/30 14:38:36;;;;;;;0.70;0.70;;;;;;;;;;5075622;28;20448;-77
2021/12/30 14:41:14;;;;;;;0.70;0.70;;;;;;;;;;5074741;28;20456;-79
2021/12/30 14:44:00;;;;;;;0.83;0.67;;;;;;;;;;5074090;28;20435;-76
2021/12/30 14:46:28;;;;;;;0.93;0.93;;;;;;;;;;5073334;28;20487;-77
2021/12/30 14:48:59;;;;;;;0.93;0.73;;;;;;;;;;5073520;28;20443;-79
2021/12/30 14:51:30;;;;;;;1.40;1.30;;;;;;;;;;5073176;28;20472;-77